sensor_id;sensor_type;location;lat;lon;timestamp;temperature;humidity
2260;DHT22;333;48.800;9.530;2023-04-24T00:00:29;11.00;99.60
2260;DHT22;333;48.800;9.530;2023-04-24T00:02:56;11.00;99.60
2260;DHT22;333;48.800;9.530;2023-04-24T00:05:24;11.00;99.60
2260;DHT22;333;48.800;9.530;2023-04-24T00:07:52;11.10;99.60
2260;DHT22;333;48.800;9.530;2023-04-24T00:10:21;10.90;99.60
2260;DHT22;333;48.800;9.530;2023-04-24T00:12:48;11.00;99.60
2260;DHT22;333;48.800;9.530;2023-04-24T00:15:15;10.90;99.60
2260;DHT22;333;48.800;9.530;2023-04-24T00:17:42;10.80;99.60
2260;DHT22;333;48.800;9.530;2023-04-24T00:20:10;10.70;99.60
2260;DHT22;333;48.800;9.530;2023-04-24T00:22:37;10.70;99.60
2260;DHT22;333;48.800;9.530;2023-04-24T00:25:06;10.80;99.60
2260;DHT22;333;48.800;9.530;2023-04-24T00:27:33;10.90;99.60
2260;DHT22;333;48.800;9.530;2023-04-24T00:30:03;10.80;99.60
2260;DHT22;333;48.800;9.530;2023-04-24T00:32:30;10.70;99.60
2260;DHT22;333;48.800;9.530;2023-04-24T00:34:57;10.80;99.60
2260;DHT22;333;48.800;9.530;2023-04-24T00:37:24;10.70;99.60
2260;DHT22;333;48.800;9.530;2023-04-24T00:39:51;10.80;99.60
2260;DHT22;333;48.800;9.530;2023-04-24T00:42:20;10.90;99.60
2260;DHT22;333;48.800;9.530;2023-04-24T00:44:47;10.90;99.60
2260;DHT22;333;48.800;9.530;2023-04-24T00:47:15;10.90;99.60
2260;DHT22;333;48.800;9.530;2023-04-24T00:49:42;11.10;99.60
2260;DHT22;333;48.800;9.530;2023-04-24T00:52:09;11.00;99.60
2260;DHT22;333;48.800;9.530;2023-04-24T00:54:36;11.00;99.60
2260;DHT22;333;48.800;9.530;2023-04-24T00:57:03;11.00;99.60
2260;DHT22;333;48.800;9.530;2023-04-24T00:59:32;11.00;99.60
2260;DHT22;333;48.800;9.530;2023-04-24T01:01:59;11.00;99.60
2260;DHT22;333;48.800;9.530;2023-04-24T01:04:26;11.00;99.60
2260;DHT22;333;48.800;9.530;2023-04-24T01:06:54;11.10;99.60
2260;DHT22;333;48.800;9.530;2023-04-24T01:09:23;11.10;99.60
2260;DHT22;333;48.800;9.530;2023-04-24T01:11:50;11.00;99.60
2260;DHT22;333;48.800;9.530;2023-04-24T01:14:17;11.10;99.60
2260;DHT22;333;48.800;9.530;2023-04-24T01:16:46;11.10;99.60
2260;DHT22;333;48.800;9.530;2023-04-24T01:19:15;11.10;99.60
2260;DHT22;333;48.800;9.530;2023-04-24T01:21:44;11.10;99.60
2260;DHT22;333;48.800;9.530;2023-04-24T01:24:14;11.00;99.60
2260;DHT22;333;48.800;9.530;2023-04-24T01:26:41;11.00;99.60
2260;DHT22;333;48.800;9.530;2023-04-24T01:29:08;11.00;99.60
2260;DHT22;333;48.800;9.530;2023-04-24T01:31:36;10.90;99.60
2260;DHT22;333;48.800;9.530;2023-04-24T01:34:03;11.00;99.60
2260;DHT22;333;48.800;9.530;2023-04-24T01:36:30;10.90;99.60
2260;DHT22;333;48.800;9.530;2023-04-24T01:38:58;10.90;99.60
2260;DHT22;333;48.800;9.530;2023-04-24T01:41:27;10.90;99.60
2260;DHT22;333;48.800;9.530;2023-04-24T01:43:55;11.00;99.60
2260;DHT22;333;48.800;9.530;2023-04-24T01:46:24;11.00;99.60
2260;DHT22;333;48.800;9.530;2023-04-24T01:48:51;11.00;99.60
2260;DHT22;333;48.800;9.530;2023-04-24T01:51:19;11.00;99.60
2260;DHT22;333;48.800;9.530;2023-04-24T01:53:46;11.00;99.60
2260;DHT22;333;48.800;9.530;2023-04-24T01:56:14;11.00;99.60
2260;DHT22;333;48.800;9.530;2023-04-24T01:58:43;11.00;99.60
2260;DHT22;333;48.800;9.530;2023-04-24T02:01:15;11.00;99.60
2260;DHT22;333;48.800;9.530;2023-04-24T02:03:44;11.10;99.60
2260;DHT22;333;48.800;9.530;2023-04-24T02:06:11;11.00;99.60
2260;DHT22;333;48.800;9.530;2023-04-24T02:08:38;11.10;99.60
2260;DHT22;333;48.800;9.530;2023-04-24T02:11:05;11.00;99.60
2260;DHT22;333;48.800;9.530;2023-04-24T02:13:32;11.00;99.60
2260;DHT22;333;48.800;9.530;2023-04-24T02:16:00;10.90;99.60
2260;DHT22;333;48.800;9.530;2023-04-24T02:18:27;10.80;99.60
2260;DHT22;333;48.800;9.530;2023-04-24T02:20:54;10.80;99.60
2260;DHT22;333;48.800;9.530;2023-04-24T02:23:21;10.90;99.60
2260;DHT22;333;48.800;9.530;2023-04-24T02:25:48;11.10;99.60
2260;DHT22;333;48.800;9.530;2023-04-24T02:28:15;11.40;99.60
2260;DHT22;333;48.800;9.530;2023-04-24T02:30:42;11.60;99.60
2260;DHT22;333;48.800;9.530;2023-04-24T02:33:11;11.60;99.60
2260;DHT22;333;48.800;9.530;2023-04-24T02:35:38;11.60;99.60
2260;DHT22;333;48.800;9.530;2023-04-24T02:38:05;11.70;99.60
2260;DHT22;333;48.800;9.530;2023-04-24T02:40:32;11.80;99.60
2260;DHT22;333;48.800;9.530;2023-04-24T02:42:59;11.80;99.60
2260;DHT22;333;48.800;9.530;2023-04-24T02:45:26;11.90;99.60
2260;DHT22;333;48.800;9.530;2023-04-24T02:47:53;12.00;99.60
2260;DHT22;333;48.800;9.530;2023-04-24T02:50:21;12.00;99.60
2260;DHT22;333;48.800;9.530;2023-04-24T02:52:48;12.00;99.60
2260;DHT22;333;48.800;9.530;2023-04-24T02:55:15;12.00;99.60
2260;DHT22;333;48.800;9.530;2023-04-24T02:57:42;11.90;99.60
2260;DHT22;333;48.800;9.530;2023-04-24T03:00:10;11.90;99.60
2260;DHT22;333;48.800;9.530;2023-04-24T03:02:37;12.00;99.60
2260;DHT22;333;48.800;9.530;2023-04-24T03:05:05;12.00;99.60
2260;DHT22;333;48.800;9.530;2023-04-24T03:07:34;12.00;99.60
2260;DHT22;333;48.800;9.530;2023-04-24T03:10:02;12.00;99.60
2260;DHT22;333;48.800;9.530;2023-04-24T03:12:30;12.00;99.60
2260;DHT22;333;48.800;9.530;2023-04-24T03:14:57;12.00;99.60
2260;DHT22;333;48.800;9.530;2023-04-24T03:17:24;12.00;99.60
2260;DHT22;333;48.800;9.530;2023-04-24T03:19:51;12.00;99.60
2260;DHT22;333;48.800;9.530;2023-04-24T03:22:18;11.90;99.60
2260;DHT22;333;48.800;9.530;2023-04-24T03:24:46;11.90;99.60
2260;DHT22;333;48.800;9.530;2023-04-24T03:27:14;11.80;99.60
2260;DHT22;333;48.800;9.530;2023-04-24T03:29:40;11.70;99.60
2260;DHT22;333;48.800;9.530;2023-04-24T03:32:07;11.60;99.60
2260;DHT22;333;48.800;9.530;2023-04-24T03:34:34;11.50;99.60
2260;DHT22;333;48.800;9.530;2023-04-24T03:37:02;11.50;99.60
2260;DHT22;333;48.800;9.530;2023-04-24T03:39:29;11.40;99.60
2260;DHT22;333;48.800;9.530;2023-04-24T03:41:57;11.30;99.60
2260;DHT22;333;48.800;9.530;2023-04-24T03:44:24;11.20;99.60
2260;DHT22;333;48.800;9.530;2023-04-24T03:46:51;11.20;99.60
2260;DHT22;333;48.800;9.530;2023-04-24T03:49:18;11.20;99.60
2260;DHT22;333;48.800;9.530;2023-04-24T03:51:46;11.30;99.60
2260;DHT22;333;48.800;9.530;2023-04-24T03:54:13;11.30;99.60
2260;DHT22;333;48.800;9.530;2023-04-24T03:56:40;11.40;99.60
2260;DHT22;333;48.800;9.530;2023-04-24T03:59:08;11.40;99.60
2260;DHT22;333;48.800;9.530;2023-04-24T04:01:35;11.40;99.60
2260;DHT22;333;48.800;9.530;2023-04-24T04:04:03;11.40;99.60
2260;DHT22;333;48.800;9.530;2023-04-24T04:06:30;11.40;99.60
2260;DHT22;333;48.800;9.530;2023-04-24T04:08:57;11.40;99.60
2260;DHT22;333;48.800;9.530;2023-04-24T04:11:24;11.50;99.60
2260;DHT22;333;48.800;9.530;2023-04-24T04:13:52;11.50;99.60
2260;DHT22;333;48.800;9.530;2023-04-24T04:16:20;11.50;99.60
2260;DHT22;333;48.800;9.530;2023-04-24T04:18:47;11.40;99.60
2260;DHT22;333;48.800;9.530;2023-04-24T04:21:14;11.40;99.60
2260;DHT22;333;48.800;9.530;2023-04-24T04:23:41;11.30;99.60
2260;DHT22;333;48.800;9.530;2023-04-24T04:26:09;11.20;99.60
2260;DHT22;333;48.800;9.530;2023-04-24T04:28:36;11.30;99.60
2260;DHT22;333;48.800;9.530;2023-04-24T04:31:03;11.20;99.60
2260;DHT22;333;48.800;9.530;2023-04-24T04:33:31;11.30;99.60
2260;DHT22;333;48.800;9.530;2023-04-24T04:35:58;11.40;99.60
2260;DHT22;333;48.800;9.530;2023-04-24T04:38:27;11.40;99.60
2260;DHT22;333;48.800;9.530;2023-04-24T04:40:55;11.40;99.60
2260;DHT22;333;48.800;9.530;2023-04-24T04:43:23;11.50;99.60
2260;DHT22;333;48.800;9.530;2023-04-24T04:45:50;11.50;99.60
2260;DHT22;333;48.800;9.530;2023-04-24T04:48:18;11.60;99.60
2260;DHT22;333;48.800;9.530;2023-04-24T04:50:46;11.50;99.60
2260;DHT22;333;48.800;9.530;2023-04-24T04:53:13;11.40;99.60
2260;DHT22;333;48.800;9.530;2023-04-24T04:55:40;11.20;99.60
2260;DHT22;333;48.800;9.530;2023-04-24T04:58:07;11.00;99.60
2260;DHT22;333;48.800;9.530;2023-04-24T05:00:34;10.70;99.60
2260;DHT22;333;48.800;9.530;2023-04-24T05:03:03;10.50;99.60
2260;DHT22;333;48.800;9.530;2023-04-24T05:05:30;10.40;99.60
2260;DHT22;333;48.800;9.530;2023-04-24T05:07:59;10.30;99.60
2260;DHT22;333;48.800;9.530;2023-04-24T05:10:26;10.20;99.60
2260;DHT22;333;48.800;9.530;2023-04-24T05:12:53;10.10;99.60
2260;DHT22;333;48.800;9.530;2023-04-24T05:15:20;10.10;99.60
2260;DHT22;333;48.800;9.530;2023-04-24T05:17:47;10.10;99.60
2260;DHT22;333;48.800;9.530;2023-04-24T05:20:14;10.00;99.60
2260;DHT22;333;48.800;9.530;2023-04-24T05:22:40;10.00;99.60
2260;DHT22;333;48.800;9.530;2023-04-24T05:25:09;10.00;99.60
2260;DHT22;333;48.800;9.530;2023-04-24T05:27:38;10.00;99.60
2260;DHT22;333;48.800;9.530;2023-04-24T05:30:07;10.00;99.60
2260;DHT22;333;48.800;9.530;2023-04-24T05:32:36;10.00;99.60
2260;DHT22;333;48.800;9.530;2023-04-24T05:35:10;10.00;99.60
2260;DHT22;333;48.800;9.530;2023-04-24T05:37:57;10.00;99.60
2260;DHT22;333;48.800;9.530;2023-04-24T05:40:42;10.00;99.60
2260;DHT22;333;48.800;9.530;2023-04-24T05:43:09;10.00;99.60
2260;DHT22;333;48.800;9.530;2023-04-24T05:45:36;10.00;99.60
2260;DHT22;333;48.800;9.530;2023-04-24T05:48:04;10.00;99.60
2260;DHT22;333;48.800;9.530;2023-04-24T05:50:31;10.00;99.60
2260;DHT22;333;48.800;9.530;2023-04-24T05:52:58;10.00;99.60
2260;DHT22;333;48.800;9.530;2023-04-24T05:55:43;10.00;99.60
2260;DHT22;333;48.800;9.530;2023-04-24T05:58:10;10.00;99.60
2260;DHT22;333;48.800;9.530;2023-04-24T06:00:38;10.00;99.60
2260;DHT22;333;48.800;9.530;2023-04-24T06:03:08;9.90;99.60
2260;DHT22;333;48.800;9.530;2023-04-24T06:05:35;9.90;99.60
2260;DHT22;333;48.800;9.530;2023-04-24T06:08:02;9.90;99.60
2260;DHT22;333;48.800;9.530;2023-04-24T06:10:29;10.00;99.60
2260;DHT22;333;48.800;9.530;2023-04-24T06:12:58;10.00;99.60
2260;DHT22;333;48.800;9.530;2023-04-24T06:15:28;10.00;99.60
2260;DHT22;333;48.800;9.530;2023-04-24T06:17:56;10.10;99.60
2260;DHT22;333;48.800;9.530;2023-04-24T06:20:23;10.10;99.60
2260;DHT22;333;48.800;9.530;2023-04-24T06:22:50;10.20;99.60
2260;DHT22;333;48.800;9.530;2023-04-24T06:25:18;10.20;99.60
2260;DHT22;333;48.800;9.530;2023-04-24T06:27:45;10.30;99.60
2260;DHT22;333;48.800;9.530;2023-04-24T06:30:13;10.30;99.60
2260;DHT22;333;48.800;9.530;2023-04-24T06:32:40;10.30;99.60
2260;DHT22;333;48.800;9.530;2023-04-24T06:35:08;10.20;99.60
2260;DHT22;333;48.800;9.530;2023-04-24T06:37:35;10.20;99.60
2260;DHT22;333;48.800;9.530;2023-04-24T06:40:03;10.10;99.60
2260;DHT22;333;48.800;9.530;2023-04-24T06:42:31;10.10;99.60
2260;DHT22;333;48.800;9.530;2023-04-24T06:44:58;10.10;99.60
2260;DHT22;333;48.800;9.530;2023-04-24T06:47:26;10.10;99.60
2260;DHT22;333;48.800;9.530;2023-04-24T06:49:53;10.10;99.60
2260;DHT22;333;48.800;9.530;2023-04-24T06:52:20;10.10;99.60
2260;DHT22;333;48.800;9.530;2023-04-24T06:54:47;10.20;99.60
2260;DHT22;333;48.800;9.530;2023-04-24T06:57:15;10.30;99.60
2260;DHT22;333;48.800;9.530;2023-04-24T06:59:42;10.50;99.60
2260;DHT22;333;48.800;9.530;2023-04-24T07:02:09;10.60;99.60
2260;DHT22;333;48.800;9.530;2023-04-24T07:04:38;10.90;99.60
2260;DHT22;333;48.800;9.530;2023-04-24T07:07:05;11.00;99.60
2260;DHT22;333;48.800;9.530;2023-04-24T07:09:33;11.20;99.60
2260;DHT22;333;48.800;9.530;2023-04-24T07:12:04;11.20;99.60
2260;DHT22;333;48.800;9.530;2023-04-24T07:14:31;11.40;99.60
2260;DHT22;333;48.800;9.530;2023-04-24T07:16:58;11.50;99.60
2260;DHT22;333;48.800;9.530;2023-04-24T07:19:25;11.70;99.60
2260;DHT22;333;48.800;9.530;2023-04-24T07:21:54;11.90;99.60
2260;DHT22;333;48.800;9.530;2023-04-24T07:24:21;12.00;99.60
2260;DHT22;333;48.800;9.530;2023-04-24T07:26:48;12.00;99.60
2260;DHT22;333;48.800;9.530;2023-04-24T07:29:17;12.10;99.60
2260;DHT22;333;48.800;9.530;2023-04-24T07:31:45;12.20;99.60
2260;DHT22;333;48.800;9.530;2023-04-24T07:34:12;12.50;99.60
2260;DHT22;333;48.800;9.530;2023-04-24T07:36:40;12.60;99.60
2260;DHT22;333;48.800;9.530;2023-04-24T07:39:08;12.70;99.60
2260;DHT22;333;48.800;9.530;2023-04-24T07:41:36;12.70;99.60
2260;DHT22;333;48.800;9.530;2023-04-24T07:44:03;12.80;99.60
2260;DHT22;333;48.800;9.530;2023-04-24T07:46:30;12.70;99.60
2260;DHT22;333;48.800;9.530;2023-04-24T07:48:57;12.50;99.60
2260;DHT22;333;48.800;9.530;2023-04-24T07:51:24;12.40;99.60
2260;DHT22;333;48.800;9.530;2023-04-24T07:53:53;12.10;99.60
2260;DHT22;333;48.800;9.530;2023-04-24T07:56:22;12.00;99.60
2260;DHT22;333;48.800;9.530;2023-04-24T07:58:49;11.90;99.60
2260;DHT22;333;48.800;9.530;2023-04-24T08:01:16;11.80;99.60
2260;DHT22;333;48.800;9.530;2023-04-24T08:03:43;12.00;99.60
2260;DHT22;333;48.800;9.530;2023-04-24T08:06:10;12.10;99.60
2260;DHT22;333;48.800;9.530;2023-04-24T08:08:37;12.20;99.60
2260;DHT22;333;48.800;9.530;2023-04-24T08:11:04;12.30;99.60
2260;DHT22;333;48.800;9.530;2023-04-24T08:13:33;12.40;99.60
2260;DHT22;333;48.800;9.530;2023-04-24T08:16:00;12.60;99.60
2260;DHT22;333;48.800;9.530;2023-04-24T08:18:27;12.90;99.60
2260;DHT22;333;48.800;9.530;2023-04-24T08:20:54;13.10;99.60
2260;DHT22;333;48.800;9.530;2023-04-24T08:23:21;13.20;99.60
2260;DHT22;333;48.800;9.530;2023-04-24T08:25:49;13.20;99.60
2260;DHT22;333;48.800;9.530;2023-04-24T08:28:16;12.90;99.60
2260;DHT22;333;48.800;9.530;2023-04-24T08:30:47;12.70;99.60
2260;DHT22;333;48.800;9.530;2023-04-24T08:33:18;12.50;99.60
2260;DHT22;333;48.800;9.530;2023-04-24T08:35:45;12.50;99.60
2260;DHT22;333;48.800;9.530;2023-04-24T08:38:12;12.50;99.60
2260;DHT22;333;48.800;9.530;2023-04-24T08:40:39;12.60;99.60
2260;DHT22;333;48.800;9.530;2023-04-24T08:43:07;12.70;99.60
2260;DHT22;333;48.800;9.530;2023-04-24T08:45:34;12.70;99.60
2260;DHT22;333;48.800;9.530;2023-04-24T08:48:04;12.60;99.60
2260;DHT22;333;48.800;9.530;2023-04-24T08:50:33;12.60;99.60
2260;DHT22;333;48.800;9.530;2023-04-24T08:53:01;12.70;99.60
2260;DHT22;333;48.800;9.530;2023-04-24T08:55:30;12.70;99.60
2260;DHT22;333;48.800;9.530;2023-04-24T08:57:59;12.70;99.60
2260;DHT22;333;48.800;9.530;2023-04-24T09:00:28;13.00;99.60
2260;DHT22;333;48.800;9.530;2023-04-24T09:02:56;13.40;99.10
2260;DHT22;333;48.800;9.530;2023-04-24T09:05:25;13.40;97.80
2260;DHT22;333;48.800;9.530;2023-04-24T09:07:55;13.30;97.50
2260;DHT22;333;48.800;9.530;2023-04-24T09:10:24;13.20;98.00
2260;DHT22;333;48.800;9.530;2023-04-24T09:12:52;13.10;98.70
2260;DHT22;333;48.800;9.530;2023-04-24T09:15:20;13.10;99.50
2260;DHT22;333;48.800;9.530;2023-04-24T09:17:47;13.00;98.90
2260;DHT22;333;48.800;9.530;2023-04-24T09:20:15;12.80;99.30
2260;DHT22;333;48.800;9.530;2023-04-24T09:22:45;12.70;99.60
2260;DHT22;333;48.800;9.530;2023-04-24T09:25:12;12.50;99.60
2260;DHT22;333;48.800;9.530;2023-04-24T09:27:42;12.50;99.60
2260;DHT22;333;48.800;9.530;2023-04-24T09:30:11;12.50;99.60
2260;DHT22;333;48.800;9.530;2023-04-24T09:32:38;12.40;99.60
2260;DHT22;333;48.800;9.530;2023-04-24T09:35:08;12.50;99.60
2260;DHT22;333;48.800;9.530;2023-04-24T09:37:37;12.50;99.60
2260;DHT22;333;48.800;9.530;2023-04-24T09:40:12;12.50;99.60
2260;DHT22;333;48.800;9.530;2023-04-24T09:42:42;12.40;99.60
2260;DHT22;333;48.800;9.530;2023-04-24T09:45:11;12.20;99.60
2260;DHT22;333;48.800;9.530;2023-04-24T09:47:38;12.00;99.60
2260;DHT22;333;48.800;9.530;2023-04-24T09:50:13;12.00;99.60
2260;DHT22;333;48.800;9.530;2023-04-24T09:52:43;11.90;99.60
2260;DHT22;333;48.800;9.530;2023-04-24T09:55:19;11.90;99.60
2260;DHT22;333;48.800;9.530;2023-04-24T09:57:54;11.80;99.60
2260;DHT22;333;48.800;9.530;2023-04-24T10:00:25;11.80;99.60
2260;DHT22;333;48.800;9.530;2023-04-24T10:02:57;12.00;99.60
2260;DHT22;333;48.800;9.530;2023-04-24T10:05:26;12.40;99.60
2260;DHT22;333;48.800;9.530;2023-04-24T10:07:57;12.90;99.60
2260;DHT22;333;48.800;9.530;2023-04-24T10:10:25;13.10;99.60
2260;DHT22;333;48.800;9.530;2023-04-24T10:12:53;13.30;99.60
2260;DHT22;333;48.800;9.530;2023-04-24T10:15:21;13.40;99.60
2260;DHT22;333;48.800;9.530;2023-04-24T10:17:50;13.40;99.60
2260;DHT22;333;48.800;9.530;2023-04-24T10:20:22;13.60;99.60
2260;DHT22;333;48.800;9.530;2023-04-24T10:22:51;13.80;99.60
2260;DHT22;333;48.800;9.530;2023-04-24T10:25:20;13.70;99.60
2260;DHT22;333;48.800;9.530;2023-04-24T10:27:50;13.50;99.60
2260;DHT22;333;48.800;9.530;2023-04-24T10:30:18;13.00;99.60
2260;DHT22;333;48.800;9.530;2023-04-24T10:32:45;12.70;99.60
2260;DHT22;333;48.800;9.530;2023-04-24T10:35:13;12.60;99.60
2260;DHT22;333;48.800;9.530;2023-04-24T10:37:44;12.70;99.60
2260;DHT22;333;48.800;9.530;2023-04-24T10:40:16;13.10;99.60
2260;DHT22;333;48.800;9.530;2023-04-24T10:42:49;13.30;99.60
2260;DHT22;333;48.800;9.530;2023-04-24T10:45:19;13.40;97.10
2260;DHT22;333;48.800;9.530;2023-04-24T10:47:56;13.10;97.00
2260;DHT22;333;48.800;9.530;2023-04-24T10:50:25;13.10;94.70
2260;DHT22;333;48.800;9.530;2023-04-24T10:52:52;13.30;94.50
2260;DHT22;333;48.800;9.530;2023-04-24T10:55:40;13.70;93.70
2260;DHT22;333;48.800;9.530;2023-04-24T10:58:09;14.40;91.10
2260;DHT22;333;48.800;9.530;2023-04-24T11:00:37;14.20;87.90
2260;DHT22;333;48.800;9.530;2023-04-24T11:03:05;13.90;89.50
2260;DHT22;333;48.800;9.530;2023-04-24T11:05:53;13.80;90.10
2260;DHT22;333;48.800;9.530;2023-04-24T11:08:29;13.50;91.10
2260;DHT22;333;48.800;9.530;2023-04-24T11:10:58;13.20;91.70
2260;DHT22;333;48.800;9.530;2023-04-24T11:16:19;12.90;92.60
2260;DHT22;333;48.800;9.530;2023-04-24T11:18:51;12.90;93.90
2260;DHT22;333;48.800;9.530;2023-04-24T11:21:20;13.00;93.00
2260;DHT22;333;48.800;9.530;2023-04-24T11:23:48;13.00;92.80
2260;DHT22;333;48.800;9.530;2023-04-24T11:26:18;13.00;93.40
2260;DHT22;333;48.800;9.530;2023-04-24T11:28:50;12.80;94.20
2260;DHT22;333;48.800;9.530;2023-04-24T11:31:36;12.80;94.80
2260;DHT22;333;48.800;9.530;2023-04-24T11:34:13;12.90;94.90
2260;DHT22;333;48.800;9.530;2023-04-24T11:36:43;12.90;95.10
2260;DHT22;333;48.800;9.530;2023-04-24T11:39:10;12.90;94.90
2260;DHT22;333;48.800;9.530;2023-04-24T11:41:38;13.10;94.90
2260;DHT22;333;48.800;9.530;2023-04-24T11:44:08;13.20;95.10
2260;DHT22;333;48.800;9.530;2023-04-24T11:46:37;13.00;94.50
2260;DHT22;333;48.800;9.530;2023-04-24T11:49:05;12.80;96.30
2260;DHT22;333;48.800;9.530;2023-04-24T11:51:32;12.60;99.20
2260;DHT22;333;48.800;9.530;2023-04-24T11:54:01;12.40;99.60
2260;DHT22;333;48.800;9.530;2023-04-24T11:56:28;12.30;99.60
2260;DHT22;333;48.800;9.530;2023-04-24T11:58:56;12.30;99.60
2260;DHT22;333;48.800;9.530;2023-04-24T12:01:24;12.50;99.60
2260;DHT22;333;48.800;9.530;2023-04-24T12:03:59;13.00;98.50
2260;DHT22;333;48.800;9.530;2023-04-24T12:06:26;13.50;97.90
2260;DHT22;333;48.800;9.530;2023-04-24T12:08:54;13.90;95.90
2260;DHT22;333;48.800;9.530;2023-04-24T12:11:23;13.90;94.80
2260;DHT22;333;48.800;9.530;2023-04-24T12:13:51;13.90;94.60
2260;DHT22;333;48.800;9.530;2023-04-24T12:16:18;13.70;94.00
2260;DHT22;333;48.800;9.530;2023-04-24T12:18:47;13.70;94.10
2260;DHT22;333;48.800;9.530;2023-04-24T12:21:19;13.30;93.30
2260;DHT22;333;48.800;9.530;2023-04-24T12:23:47;12.90;94.40
2260;DHT22;333;48.800;9.530;2023-04-24T12:26:17;12.80;95.70
2260;DHT22;333;48.800;9.530;2023-04-24T12:28:47;12.70;96.30
2260;DHT22;333;48.800;9.530;2023-04-24T12:31:15;12.70;96.80
2260;DHT22;333;48.800;9.530;2023-04-24T12:33:42;12.60;95.80
2260;DHT22;333;48.800;9.530;2023-04-24T12:36:11;12.70;95.80
2260;DHT22;333;48.800;9.530;2023-04-24T12:38:43;13.10;95.60
2260;DHT22;333;48.800;9.530;2023-04-24T12:41:13;13.90;94.70
2260;DHT22;333;48.800;9.530;2023-04-24T12:43:51;14.50;92.10
2260;DHT22;333;48.800;9.530;2023-04-24T12:46:18;14.50;92.20
2260;DHT22;333;48.800;9.530;2023-04-24T12:48:45;14.20;92.10
2260;DHT22;333;48.800;9.530;2023-04-24T12:51:14;13.80;91.60
2260;DHT22;333;48.800;9.530;2023-04-24T12:53:41;13.60;93.60
2260;DHT22;333;48.800;9.530;2023-04-24T12:56:08;13.70;94.20
2260;DHT22;333;48.800;9.530;2023-04-24T12:58:35;13.60;94.50
2260;DHT22;333;48.800;9.530;2023-04-24T13:01:02;13.40;95.00
2260;DHT22;333;48.800;9.530;2023-04-24T13:03:29;13.30;95.90
2260;DHT22;333;48.800;9.530;2023-04-24T13:05:56;13.30;95.90
2260;DHT22;333;48.800;9.530;2023-04-24T13:08:25;13.20;95.00
2260;DHT22;333;48.800;9.530;2023-04-24T13:10:52;13.30;96.60
2260;DHT22;333;48.800;9.530;2023-04-24T13:13:19;13.30;96.20
2260;DHT22;333;48.800;9.530;2023-04-24T13:15:46;13.30;95.00
2260;DHT22;333;48.800;9.530;2023-04-24T13:18:13;13.20;93.70
2260;DHT22;333;48.800;9.530;2023-04-24T13:20:41;13.30;94.40
2260;DHT22;333;48.800;9.530;2023-04-24T13:23:09;13.30;94.00
2260;DHT22;333;48.800;9.530;2023-04-24T13:25:38;13.20;94.00
2260;DHT22;333;48.800;9.530;2023-04-24T13:28:05;13.10;93.90
2260;DHT22;333;48.800;9.530;2023-04-24T13:30:32;13.10;94.20
2260;DHT22;333;48.800;9.530;2023-04-24T13:33:00;12.90;94.90
2260;DHT22;333;48.800;9.530;2023-04-24T13:35:27;12.70;96.00
2260;DHT22;333;48.800;9.530;2023-04-24T13:37:54;12.40;99.60
2260;DHT22;333;48.800;9.530;2023-04-24T13:40:21;11.90;99.60
2260;DHT22;333;48.800;9.530;2023-04-24T13:42:50;11.10;99.60
2260;DHT22;333;48.800;9.530;2023-04-24T13:45:17;10.70;99.60
2260;DHT22;333;48.800;9.530;2023-04-24T13:47:44;10.50;99.60
2260;DHT22;333;48.800;9.530;2023-04-24T13:50:11;10.50;99.60
2260;DHT22;333;48.800;9.530;2023-04-24T13:52:39;10.90;99.60
2260;DHT22;333;48.800;9.530;2023-04-24T13:55:07;11.60;99.60
2260;DHT22;333;48.800;9.530;2023-04-24T13:57:34;12.00;99.60
2260;DHT22;333;48.800;9.530;2023-04-24T14:00:03;12.70;99.60
2260;DHT22;333;48.800;9.530;2023-04-24T14:02:36;12.90;99.60
2260;DHT22;333;48.800;9.530;2023-04-24T14:05:03;12.90;99.60
2260;DHT22;333;48.800;9.530;2023-04-24T14:07:31;12.90;99.60
2260;DHT22;333;48.800;9.530;2023-04-24T14:09:58;13.10;99.60
2260;DHT22;333;48.800;9.530;2023-04-24T14:12:25;13.00;99.60
2260;DHT22;333;48.800;9.530;2023-04-24T14:14:52;12.80;99.60
2260;DHT22;333;48.800;9.530;2023-04-24T14:17:21;12.60;99.60
2260;DHT22;333;48.800;9.530;2023-04-24T14:20:12;12.40;99.60
2260;DHT22;333;48.800;9.530;2023-04-24T14:22:45;12.30;99.60
2260;DHT22;333;48.800;9.530;2023-04-24T14:25:17;12.00;99.60
2260;DHT22;333;48.800;9.530;2023-04-24T14:27:48;11.30;99.60
2260;DHT22;333;48.800;9.530;2023-04-24T14:30:15;10.60;99.60
2260;DHT22;333;48.800;9.530;2023-04-24T14:32:44;10.20;99.60
2260;DHT22;333;48.800;9.530;2023-04-24T14:35:11;10.00;99.60
2260;DHT22;333;48.800;9.530;2023-04-24T14:37:39;10.10;99.60
2260;DHT22;333;48.800;9.530;2023-04-24T14:40:09;10.30;99.60
2260;DHT22;333;48.800;9.530;2023-04-24T14:42:36;11.10;99.60
2260;DHT22;333;48.800;9.530;2023-04-24T14:45:04;12.30;99.60
2260;DHT22;333;48.800;9.530;2023-04-24T14:47:31;12.80;99.60
2260;DHT22;333;48.800;9.530;2023-04-24T14:50:00;12.70;99.60
2260;DHT22;333;48.800;9.530;2023-04-24T14:52:27;12.50;99.60
2260;DHT22;333;48.800;9.530;2023-04-24T14:54:55;12.70;99.60
2260;DHT22;333;48.800;9.530;2023-04-24T14:57:23;13.00;99.60
2260;DHT22;333;48.800;9.530;2023-04-24T14:59:50;13.80;99.60
2260;DHT22;333;48.800;9.530;2023-04-24T15:02:17;14.40;99.60
2260;DHT22;333;48.800;9.530;2023-04-24T15:04:44;14.50;99.60
2260;DHT22;333;48.800;9.530;2023-04-24T15:07:12;14.70;99.60
2260;DHT22;333;48.800;9.530;2023-04-24T15:09:39;14.70;99.60
2260;DHT22;333;48.800;9.530;2023-04-24T15:12:07;15.30;99.60
2260;DHT22;333;48.800;9.530;2023-04-24T15:14:35;15.40;99.60
2260;DHT22;333;48.800;9.530;2023-04-24T15:17:02;15.30;99.60
2260;DHT22;333;48.800;9.530;2023-04-24T15:19:30;15.20;99.60
2260;DHT22;333;48.800;9.530;2023-04-24T15:21:57;14.60;99.50
2260;DHT22;333;48.800;9.530;2023-04-24T15:24:26;13.80;99.60
2260;DHT22;333;48.800;9.530;2023-04-24T15:26:53;13.20;99.60
2260;DHT22;333;48.800;9.530;2023-04-24T15:29:20;13.00;99.60
2260;DHT22;333;48.800;9.530;2023-04-24T15:31:48;13.70;99.60
2260;DHT22;333;48.800;9.530;2023-04-24T15:34:15;14.90;99.60
2260;DHT22;333;48.800;9.530;2023-04-24T15:36:42;15.10;98.50
2260;DHT22;333;48.800;9.530;2023-04-24T15:39:09;14.70;99.10
2260;DHT22;333;48.800;9.530;2023-04-24T15:41:37;13.90;99.60
2260;DHT22;333;48.800;9.530;2023-04-24T15:44:04;13.10;99.60
2260;DHT22;333;48.800;9.530;2023-04-24T15:46:34;12.70;99.60
2260;DHT22;333;48.800;9.530;2023-04-24T15:49:01;12.40;99.60
2260;DHT22;333;48.800;9.530;2023-04-24T15:51:28;12.30;99.60
2260;DHT22;333;48.800;9.530;2023-04-24T15:53:56;12.30;99.60
2260;DHT22;333;48.800;9.530;2023-04-24T15:56:23;12.30;99.60
2260;DHT22;333;48.800;9.530;2023-04-24T15:58:52;12.40;99.60
2260;DHT22;333;48.800;9.530;2023-04-24T16:01:19;12.50;99.60
2260;DHT22;333;48.800;9.530;2023-04-24T16:03:47;12.50;99.60
2260;DHT22;333;48.800;9.530;2023-04-24T16:06:14;12.50;99.60
2260;DHT22;333;48.800;9.530;2023-04-24T16:08:41;12.40;99.60
2260;DHT22;333;48.800;9.530;2023-04-24T16:11:08;12.40;99.60
2260;DHT22;333;48.800;9.530;2023-04-24T16:13:35;12.20;99.60
2260;DHT22;333;48.800;9.530;2023-04-24T16:16:04;11.60;99.60
2260;DHT22;333;48.800;9.530;2023-04-24T16:18:31;11.20;99.60
2260;DHT22;333;48.800;9.530;2023-04-24T16:20:58;11.60;99.60
2260;DHT22;333;48.800;9.530;2023-04-24T16:23:25;12.20;99.60
2260;DHT22;333;48.800;9.530;2023-04-24T16:25:52;13.00;99.60